Koloa, Hawaii
Current Conditions -  °F | °C
As of 1:53 AM on Sunday 21 Dec 2014 (Local Time) from PHLI Reporting Station
Clear Clear  
Wind Chill: 69°   Ceiling: Unl
Heat Index: 69°   Visibility: 10mi
Dew Point: 63°   Wind: 9mph
Humidity: 81%   Direction: 280°W
Pressure: 30.05"   Gusts: NA
Location:  21.9°N, 159.45°W
Report Text: PHLI 211153Z 28008KT 10SM CLR 21/17 A3005 RMK AO2 SLP173 6//// 7//// T02060172 10278 20206
Loading
Personal Weather Stations






























Interactive Weather Map New forecast layout! Learn more

10-Day Weather Forecast

Advertisements
Track Severe Weather on mobile